sensor_id;sensor_type;location;lat;lon;timestamp;temperature;humidity
51801;DHT22;37855;53.204;6.568;2023-05-10T00:00:39;14.20;78.70
51801;DHT22;37855;53.204;6.568;2023-05-10T00:03:04;14.10;78.50
51801;DHT22;37855;53.204;6.568;2023-05-10T00:05:32;14.10;78.40
51801;DHT22;37855;53.204;6.568;2023-05-10T00:07:58;14.00;78.50
51801;DHT22;37855;53.204;6.568;2023-05-10T00:10:23;14.00;78.60
51801;DHT22;37855;53.204;6.568;2023-05-10T00:12:49;14.00;78.60
51801;DHT22;37855;53.204;6.568;2023-05-10T00:15:15;14.00;78.70
51801;DHT22;37855;53.204;6.568;2023-05-10T00:17:40;13.90;78.60
51801;DHT22;37855;53.204;6.568;2023-05-10T00:20:07;13.90;78.60
51801;DHT22;37855;53.204;6.568;2023-05-10T00:22:33;13.80;78.60
51801;DHT22;37855;53.204;6.568;2023-05-10T00:24:59;13.80;78.70
51801;DHT22;37855;53.204;6.568;2023-05-10T00:27:24;13.80;78.80
51801;DHT22;37855;53.204;6.568;2023-05-10T00:29:50;13.80;78.80
51801;DHT22;37855;53.204;6.568;2023-05-10T00:32:16;13.80;78.70
51801;DHT22;37855;53.204;6.568;2023-05-10T00:34:42;13.80;78.70
51801;DHT22;37855;53.204;6.568;2023-05-10T00:37:07;13.70;78.70
51801;DHT22;37855;53.204;6.568;2023-05-10T00:39:33;13.70;78.70
51801;DHT22;37855;53.204;6.568;2023-05-10T00:41:58;13.70;78.70
51801;DHT22;37855;53.204;6.568;2023-05-10T00:44:25;13.70;78.60
51801;DHT22;37855;53.204;6.568;2023-05-10T00:46:52;13.70;78.60
51801;DHT22;37855;53.204;6.568;2023-05-10T00:49:21;13.70;78.60
51801;DHT22;37855;53.204;6.568;2023-05-10T00:51:47;13.70;78.70
51801;DHT22;37855;53.204;6.568;2023-05-10T00:54:14;13.70;78.80
51801;DHT22;37855;53.204;6.568;2023-05-10T00:56:40;13.70;78.80
51801;DHT22;37855;53.204;6.568;2023-05-10T00:59:09;13.70;78.80
51801;DHT22;37855;53.204;6.568;2023-05-10T01:01:36;13.70;78.90
51801;DHT22;37855;53.204;6.568;2023-05-10T01:04:02;13.70;78.90
51801;DHT22;37855;53.204;6.568;2023-05-10T01:06:28;13.60;78.80
51801;DHT22;37855;53.204;6.568;2023-05-10T01:08:54;13.60;78.80
51801;DHT22;37855;53.204;6.568;2023-05-10T01:11:24;13.60;78.80
51801;DHT22;37855;53.204;6.568;2023-05-10T01:13:54;13.50;78.90
51801;DHT22;37855;53.204;6.568;2023-05-10T01:16:21;13.50;78.90
51801;DHT22;37855;53.204;6.568;2023-05-10T01:18:46;13.50;78.90
51801;DHT22;37855;53.204;6.568;2023-05-10T01:24:16;13.50;78.70
51801;DHT22;37855;53.204;6.568;2023-05-10T01:30:09;13.40;78.90
51801;DHT22;37855;53.204;6.568;2023-05-10T01:35:24;13.30;78.90
51801;DHT22;37855;53.204;6.568;2023-05-10T01:43:11;13.30;78.80
51801;DHT22;37855;53.204;6.568;2023-05-10T01:46:07;13.30;78.90
51801;DHT22;37855;53.204;6.568;2023-05-10T01:48:46;13.30;78.80
51801;DHT22;37855;53.204;6.568;2023-05-10T01:51:21;13.30;78.90
51801;DHT22;37855;53.204;6.568;2023-05-10T01:53:48;13.30;78.90
51801;DHT22;37855;53.204;6.568;2023-05-10T01:56:16;13.20;79.00
51801;DHT22;37855;53.204;6.568;2023-05-10T01:58:46;13.20;79.00
51801;DHT22;37855;53.204;6.568;2023-05-10T02:01:13;13.20;79.00
51801;DHT22;37855;53.204;6.568;2023-05-10T02:03:40;13.20;79.10
51801;DHT22;37855;53.204;6.568;2023-05-10T02:06:07;13.20;79.10
51801;DHT22;37855;53.204;6.568;2023-05-10T02:08:36;13.20;79.10
51801;DHT22;37855;53.204;6.568;2023-05-10T02:11:03;13.20;79.00
51801;DHT22;37855;53.204;6.568;2023-05-10T02:13:29;13.10;79.10
51801;DHT22;37855;53.204;6.568;2023-05-10T02:15:57;13.10;79.10
51801;DHT22;37855;53.204;6.568;2023-05-10T02:18:25;13.10;79.20
51801;DHT22;37855;53.204;6.568;2023-05-10T02:20:53;13.10;79.20
51801;DHT22;37855;53.204;6.568;2023-05-10T02:23:20;13.10;79.10
51801;DHT22;37855;53.204;6.568;2023-05-10T02:25:48;13.10;79.20
51801;DHT22;37855;53.204;6.568;2023-05-10T02:28:14;13.10;79.20
51801;DHT22;37855;53.204;6.568;2023-05-10T02:30:41;13.10;79.20
51801;DHT22;37855;53.204;6.568;2023-05-10T02:33:07;13.10;79.10
51801;DHT22;37855;53.204;6.568;2023-05-10T02:35:34;13.10;79.20
51801;DHT22;37855;53.204;6.568;2023-05-10T02:38:01;13.10;79.30
51801;DHT22;37855;53.204;6.568;2023-05-10T02:40:27;13.10;79.40
51801;DHT22;37855;53.204;6.568;2023-05-10T02:42:55;13.10;79.40
51801;DHT22;37855;53.204;6.568;2023-05-10T02:45:24;13.10;79.40
51801;DHT22;37855;53.204;6.568;2023-05-10T02:47:52;13.10;79.40
51801;DHT22;37855;53.204;6.568;2023-05-10T02:50:18;13.10;79.40
51801;DHT22;37855;53.204;6.568;2023-05-10T02:52:51;13.10;79.30
51801;DHT22;37855;53.204;6.568;2023-05-10T02:55:24;13.00;79.30
51801;DHT22;37855;53.204;6.568;2023-05-10T02:58:01;13.00;79.50
51801;DHT22;37855;53.204;6.568;2023-05-10T03:00:27;13.00;79.50
51801;DHT22;37855;53.204;6.568;2023-05-10T03:02:53;13.00;79.50
51801;DHT22;37855;53.204;6.568;2023-05-10T03:05:19;13.00;79.50
51801;DHT22;37855;53.204;6.568;2023-05-10T03:07:46;13.00;79.50
51801;DHT22;37855;53.204;6.568;2023-05-10T03:10:12;13.00;79.50
51801;DHT22;37855;53.204;6.568;2023-05-10T03:13:04;13.00;79.50
51801;DHT22;37855;53.204;6.568;2023-05-10T03:15:37;13.00;79.70
51801;DHT22;37855;53.204;6.568;2023-05-10T03:18:42;13.00;79.80
51801;DHT22;37855;53.204;6.568;2023-05-10T03:21:11;13.00;79.70
51801;DHT22;37855;53.204;6.568;2023-05-10T03:23:50;13.00;79.70
51801;DHT22;37855;53.204;6.568;2023-05-10T03:26:26;13.00;79.80
51801;DHT22;37855;53.204;6.568;2023-05-10T03:28:53;13.00;79.80
51801;DHT22;37855;53.204;6.568;2023-05-10T03:31:19;13.00;79.80
51801;DHT22;37855;53.204;6.568;2023-05-10T03:33:49;13.00;79.80
51801;DHT22;37855;53.204;6.568;2023-05-10T03:36:15;13.00;79.80
51801;DHT22;37855;53.204;6.568;2023-05-10T03:38:42;13.00;79.80
51801;DHT22;37855;53.204;6.568;2023-05-10T03:41:08;13.00;79.90
51801;DHT22;37855;53.204;6.568;2023-05-10T03:43:38;13.00;79.80
51801;DHT22;37855;53.204;6.568;2023-05-10T03:46:05;13.00;79.70
51801;DHT22;37855;53.204;6.568;2023-05-10T03:48:32;13.00;79.80
51801;DHT22;37855;53.204;6.568;2023-05-10T03:50:57;13.00;79.70
51801;DHT22;37855;53.204;6.568;2023-05-10T03:53:23;13.00;79.70
51801;DHT22;37855;53.204;6.568;2023-05-10T03:55:50;13.00;79.70
51801;DHT22;37855;53.204;6.568;2023-05-10T03:58:16;12.90;79.70
51801;DHT22;37855;53.204;6.568;2023-05-10T04:00:42;12.90;79.80
51801;DHT22;37855;53.204;6.568;2023-05-10T04:03:09;12.90;79.80
51801;DHT22;37855;53.204;6.568;2023-05-10T04:05:35;12.90;79.90
51801;DHT22;37855;53.204;6.568;2023-05-10T04:08:01;12.90;80.00
51801;DHT22;37855;53.204;6.568;2023-05-10T04:10:30;12.90;80.00
51801;DHT22;37855;53.204;6.568;2023-05-10T04:12:56;12.90;79.90
51801;DHT22;37855;53.204;6.568;2023-05-10T04:15:21;13.00;79.90
51801;DHT22;37855;53.204;6.568;2023-05-10T04:17:47;12.90;80.00
51801;DHT22;37855;53.204;6.568;2023-05-10T04:20:14;12.90;80.00
51801;DHT22;37855;53.204;6.568;2023-05-10T04:22:40;12.90;79.90
51801;DHT22;37855;53.204;6.568;2023-05-10T04:25:06;12.90;80.00
51801;DHT22;37855;53.204;6.568;2023-05-10T04:27:32;12.90;79.90
51801;DHT22;37855;53.204;6.568;2023-05-10T04:29:58;12.90;80.10
51801;DHT22;37855;53.204;6.568;2023-05-10T04:32:24;12.90;80.10
51801;DHT22;37855;53.204;6.568;2023-05-10T04:34:50;12.90;80.10
51801;DHT22;37855;53.204;6.568;2023-05-10T04:37:17;12.90;80.10
51801;DHT22;37855;53.204;6.568;2023-05-10T04:39:43;12.90;79.90
51801;DHT22;37855;53.204;6.568;2023-05-10T04:42:09;12.80;79.90
51801;DHT22;37855;53.204;6.568;2023-05-10T04:44:35;12.80;79.80
51801;DHT22;37855;53.204;6.568;2023-05-10T04:47:01;12.70;79.90
51801;DHT22;37855;53.204;6.568;2023-05-10T04:49:28;12.70;80.00
51801;DHT22;37855;53.204;6.568;2023-05-10T04:51:55;12.70;79.90
51801;DHT22;37855;53.204;6.568;2023-05-10T04:54:20;12.80;80.00
51801;DHT22;37855;53.204;6.568;2023-05-10T04:56:46;12.70;80.10
51801;DHT22;37855;53.204;6.568;2023-05-10T04:59:12;12.70;80.10
51801;DHT22;37855;53.204;6.568;2023-05-10T05:01:37;12.70;80.20
51801;DHT22;37855;53.204;6.568;2023-05-10T05:04:03;12.70;80.10
51801;DHT22;37855;53.204;6.568;2023-05-10T05:06:29;12.70;80.20
51801;DHT22;37855;53.204;6.568;2023-05-10T05:08:56;12.70;80.10
51801;DHT22;37855;53.204;6.568;2023-05-10T05:11:25;12.70;80.20
51801;DHT22;37855;53.204;6.568;2023-05-10T05:13:51;12.70;80.30
51801;DHT22;37855;53.204;6.568;2023-05-10T05:16:17;12.70;80.40
51801;DHT22;37855;53.204;6.568;2023-05-10T05:18:42;12.70;80.30
51801;DHT22;37855;53.204;6.568;2023-05-10T05:21:18;12.70;80.30
51801;DHT22;37855;53.204;6.568;2023-05-10T05:23:44;12.80;80.40
51801;DHT22;37855;53.204;6.568;2023-05-10T05:26:10;12.70;80.30
51801;DHT22;37855;53.204;6.568;2023-05-10T05:28:36;12.70;80.40
51801;DHT22;37855;53.204;6.568;2023-05-10T05:31:06;12.70;80.40
51801;DHT22;37855;53.204;6.568;2023-05-10T05:33:33;12.70;80.60
51801;DHT22;37855;53.204;6.568;2023-05-10T05:36:03;12.70;80.50
51801;DHT22;37855;53.204;6.568;2023-05-10T05:38:31;12.70;80.60
51801;DHT22;37855;53.204;6.568;2023-05-10T05:40:57;12.70;80.50
51801;DHT22;37855;53.204;6.568;2023-05-10T05:43:22;12.70;80.60
51801;DHT22;37855;53.204;6.568;2023-05-10T05:45:48;12.70;80.60
51801;DHT22;37855;53.204;6.568;2023-05-10T05:48:14;12.60;80.80
51801;DHT22;37855;53.204;6.568;2023-05-10T05:50:40;12.70;80.90
51801;DHT22;37855;53.204;6.568;2023-05-10T05:53:05;12.70;80.90
51801;DHT22;37855;53.204;6.568;2023-05-10T05:55:31;12.70;80.90
51801;DHT22;37855;53.204;6.568;2023-05-10T05:57:58;12.70;80.90
51801;DHT22;37855;53.204;6.568;2023-05-10T06:00:23;12.70;80.90
51801;DHT22;37855;53.204;6.568;2023-05-10T06:02:49;12.70;81.00
51801;DHT22;37855;53.204;6.568;2023-05-10T06:05:15;12.70;81.00
51801;DHT22;37855;53.204;6.568;2023-05-10T06:07:41;12.70;81.00
51801;DHT22;37855;53.204;6.568;2023-05-10T06:10:15;12.70;81.00
51801;DHT22;37855;53.204;6.568;2023-05-10T06:12:41;12.70;81.10
51801;DHT22;37855;53.204;6.568;2023-05-10T06:15:07;12.70;81.10
51801;DHT22;37855;53.204;6.568;2023-05-10T06:17:33;12.70;81.20
51801;DHT22;37855;53.204;6.568;2023-05-10T06:20:05;12.60;81.20
51801;DHT22;37855;53.204;6.568;2023-05-10T06:22:30;12.70;81.20
51801;DHT22;37855;53.204;6.568;2023-05-10T06:24:56;12.60;81.30
51801;DHT22;37855;53.204;6.568;2023-05-10T06:27:22;12.60;81.20
51801;DHT22;37855;53.204;6.568;2023-05-10T06:29:51;12.60;81.20
51801;DHT22;37855;53.204;6.568;2023-05-10T06:32:17;12.60;81.20
51801;DHT22;37855;53.204;6.568;2023-05-10T06:34:42;12.60;81.20
51801;DHT22;37855;53.204;6.568;2023-05-10T06:37:09;12.60;81.20
51801;DHT22;37855;53.204;6.568;2023-05-10T06:39:34;12.50;81.20
51801;DHT22;37855;53.204;6.568;2023-05-10T06:42:02;12.50;81.10
51801;DHT22;37855;53.204;6.568;2023-05-10T06:44:30;12.50;81.20
51801;DHT22;37855;53.204;6.568;2023-05-10T06:47:05;12.50;81.30
51801;DHT22;37855;53.204;6.568;2023-05-10T06:49:31;12.40;81.40
51801;DHT22;37855;53.204;6.568;2023-05-10T06:51:56;12.40;81.50
51801;DHT22;37855;53.204;6.568;2023-05-10T06:54:25;12.40;81.30
51801;DHT22;37855;53.204;6.568;2023-05-10T06:56:54;12.30;81.30
51801;DHT22;37855;53.204;6.568;2023-05-10T06:59:19;12.30;81.40
51801;DHT22;37855;53.204;6.568;2023-05-10T07:01:47;12.40;81.40
51801;DHT22;37855;53.204;6.568;2023-05-10T07:04:12;12.30;81.60
51801;DHT22;37855;53.204;6.568;2023-05-10T07:06:38;12.30;81.50
51801;DHT22;37855;53.204;6.568;2023-05-10T07:09:06;12.30;81.60
51801;DHT22;37855;53.204;6.568;2023-05-10T07:11:33;12.30;81.60
51801;DHT22;37855;53.204;6.568;2023-05-10T07:13:58;12.40;81.40
51801;DHT22;37855;53.204;6.568;2023-05-10T07:16:27;12.40;81.40
51801;DHT22;37855;53.204;6.568;2023-05-10T07:18:54;12.30;81.40
51801;DHT22;37855;53.204;6.568;2023-05-10T07:21:19;12.30;81.40
51801;DHT22;37855;53.204;6.568;2023-05-10T07:23:45;12.40;81.40
51801;DHT22;37855;53.204;6.568;2023-05-10T07:26:11;12.30;81.30
51801;DHT22;37855;53.204;6.568;2023-05-10T07:28:36;12.40;81.20
51801;DHT22;37855;53.204;6.568;2023-05-10T07:31:03;12.40;81.30
51801;DHT22;37855;53.204;6.568;2023-05-10T07:33:29;12.40;81.20
51801;DHT22;37855;53.204;6.568;2023-05-10T07:35:55;12.50;81.20
51801;DHT22;37855;53.204;6.568;2023-05-10T07:38:21;12.40;81.20
51801;DHT22;37855;53.204;6.568;2023-05-10T07:40:47;12.50;81.30
51801;DHT22;37855;53.204;6.568;2023-05-10T07:43:13;12.50;81.10
51801;DHT22;37855;53.204;6.568;2023-05-10T07:45:39;12.50;80.90
51801;DHT22;37855;53.204;6.568;2023-05-10T07:48:04;12.50;81.00
51801;DHT22;37855;53.204;6.568;2023-05-10T07:50:30;12.50;81.00
51801;DHT22;37855;53.204;6.568;2023-05-10T07:52:56;12.50;81.00
51801;DHT22;37855;53.204;6.568;2023-05-10T07:55:22;12.60;81.10
51801;DHT22;37855;53.204;6.568;2023-05-10T07:57:47;12.60;81.00
51801;DHT22;37855;53.204;6.568;2023-05-10T08:00:17;12.60;81.00
51801;DHT22;37855;53.204;6.568;2023-05-10T08:02:44;12.60;81.00
51801;DHT22;37855;53.204;6.568;2023-05-10T08:05:12;12.50;80.90
51801;DHT22;37855;53.204;6.568;2023-05-10T08:07:38;12.50;80.90
51801;DHT22;37855;53.204;6.568;2023-05-10T08:10:05;12.50;80.90
51801;DHT22;37855;53.204;6.568;2023-05-10T08:12:31;12.50;81.00
51801;DHT22;37855;53.204;6.568;2023-05-10T08:14:58;12.50;81.10
51801;DHT22;37855;53.204;6.568;2023-05-10T08:17:23;12.40;81.10
51801;DHT22;37855;53.204;6.568;2023-05-10T08:19:49;12.40;81.10
51801;DHT22;37855;53.204;6.568;2023-05-10T08:22:15;12.40;81.10
51801;DHT22;37855;53.204;6.568;2023-05-10T08:24:41;12.40;81.10
51801;DHT22;37855;53.204;6.568;2023-05-10T08:27:08;12.40;81.10
51801;DHT22;37855;53.204;6.568;2023-05-10T08:29:34;12.50;81.20
51801;DHT22;37855;53.204;6.568;2023-05-10T08:31:59;12.50;81.10
51801;DHT22;37855;53.204;6.568;2023-05-10T08:34:26;12.50;80.90
51801;DHT22;37855;53.204;6.568;2023-05-10T08:36:52;12.50;80.90
51801;DHT22;37855;53.204;6.568;2023-05-10T08:39:18;12.50;80.80
51801;DHT22;37855;53.204;6.568;2023-05-10T08:41:45;12.50;80.70
51801;DHT22;37855;53.204;6.568;2023-05-10T08:44:13;12.60;80.70
51801;DHT22;37855;53.204;6.568;2023-05-10T08:46:41;12.60;80.80
51801;DHT22;37855;53.204;6.568;2023-05-10T08:49:11;12.60;80.70
51801;DHT22;37855;53.204;6.568;2023-05-10T08:51:40;12.60;80.90
51801;DHT22;37855;53.204;6.568;2023-05-10T08:54:09;12.70;80.50
51801;DHT22;37855;53.204;6.568;2023-05-10T08:56:35;12.60;80.50
51801;DHT22;37855;53.204;6.568;2023-05-10T08:59:01;12.70;80.50
51801;DHT22;37855;53.204;6.568;2023-05-10T09:01:28;12.70;80.30
51801;DHT22;37855;53.204;6.568;2023-05-10T09:03:58;12.70;80.40
51801;DHT22;37855;53.204;6.568;2023-05-10T09:06:27;12.70;80.50
51801;DHT22;37855;53.204;6.568;2023-05-10T09:08:52;12.60;80.50
51801;DHT22;37855;53.204;6.568;2023-05-10T09:11:20;12.60;80.50
51801;DHT22;37855;53.204;6.568;2023-05-10T09:13:48;12.60;80.50
51801;DHT22;37855;53.204;6.568;2023-05-10T09:16:16;12.60;80.40
51801;DHT22;37855;53.204;6.568;2023-05-10T09:18:41;12.70;80.40
51801;DHT22;37855;53.204;6.568;2023-05-10T09:21:10;12.70;80.40
51801;DHT22;37855;53.204;6.568;2023-05-10T09:23:36;12.70;80.50
51801;DHT22;37855;53.204;6.568;2023-05-10T09:26:03;12.70;80.50
51801;DHT22;37855;53.204;6.568;2023-05-10T09:28:57;12.70;80.60
51801;DHT22;37855;53.204;6.568;2023-05-10T09:31:44;12.80;80.50
51801;DHT22;37855;53.204;6.568;2023-05-10T09:34:17;12.90;80.50
51801;DHT22;37855;53.204;6.568;2023-05-10T09:36:55;13.00;80.40
51801;DHT22;37855;53.204;6.568;2023-05-10T09:39:30;13.00;80.40
51801;DHT22;37855;53.204;6.568;2023-05-10T09:42:02;13.10;80.20
51801;DHT22;37855;53.204;6.568;2023-05-10T09:44:29;13.20;80.10
51801;DHT22;37855;53.204;6.568;2023-05-10T09:46:56;13.30;80.10
51801;DHT22;37855;53.204;6.568;2023-05-10T09:49:22;13.30;80.00
51801;DHT22;37855;53.204;6.568;2023-05-10T09:51:59;13.40;79.80
51801;DHT22;37855;53.204;6.568;2023-05-10T09:54:25;13.40;79.70
51801;DHT22;37855;53.204;6.568;2023-05-10T09:56:50;13.50;79.60
51801;DHT22;37855;53.204;6.568;2023-05-10T09:59:16;13.50;79.40
51801;DHT22;37855;53.204;6.568;2023-05-10T10:01:49;13.50;79.20
51801;DHT22;37855;53.204;6.568;2023-05-10T10:04:15;13.50;79.00
51801;DHT22;37855;53.204;6.568;2023-05-10T10:06:41;13.40;78.90
51801;DHT22;37855;53.204;6.568;2023-05-10T10:09:10;13.50;79.10
51801;DHT22;37855;53.204;6.568;2023-05-10T10:11:37;13.50;79.10
51801;DHT22;37855;53.204;6.568;2023-05-10T10:14:04;13.60;79.10
51801;DHT22;37855;53.204;6.568;2023-05-10T10:16:31;13.80;79.10
51801;DHT22;37855;53.204;6.568;2023-05-10T10:18:57;14.00;78.60
51801;DHT22;37855;53.204;6.568;2023-05-10T10:21:23;14.00;78.30
51801;DHT22;37855;53.204;6.568;2023-05-10T10:23:50;14.10;78.00
51801;DHT22;37855;53.204;6.568;2023-05-10T10:26:19;14.10;77.60
51801;DHT22;37855;53.204;6.568;2023-05-10T10:29:00;14.10;77.20
51801;DHT22;37855;53.204;6.568;2023-05-10T10:31:47;14.20;77.30
51801;DHT22;37855;53.204;6.568;2023-05-10T10:34:26;14.20;77.30
51801;DHT22;37855;53.204;6.568;2023-05-10T10:36:56;14.30;77.10
51801;DHT22;37855;53.204;6.568;2023-05-10T10:39:23;14.30;77.00
51801;DHT22;37855;53.204;6.568;2023-05-10T10:41:54;14.20;76.80
51801;DHT22;37855;53.204;6.568;2023-05-10T10:44:46;14.20;77.00
51801;DHT22;37855;53.204;6.568;2023-05-10T10:52:27;14.20;76.70
51801;DHT22;37855;53.204;6.568;2023-05-10T11:00:53;14.30;76.50
51801;DHT22;37855;53.204;6.568;2023-05-10T11:03:12;14.30;76.60
51801;DHT22;37855;53.204;6.568;2023-05-10T11:08:26;14.30;76.00
51801;DHT22;37855;53.204;6.568;2023-05-10T11:11:14;14.40;76.00
51801;DHT22;37855;53.204;6.568;2023-05-10T11:13:46;14.40;76.00
51801;DHT22;37855;53.204;6.568;2023-05-10T11:16:22;14.50;75.80
51801;DHT22;37855;53.204;6.568;2023-05-10T11:19:07;14.50;75.60
51801;DHT22;37855;53.204;6.568;2023-05-10T11:21:34;14.50;75.40
51801;DHT22;37855;53.204;6.568;2023-05-10T11:24:14;14.60;75.60
51801;DHT22;37855;53.204;6.568;2023-05-10T11:26:44;14.70;75.30
51801;DHT22;37855;53.204;6.568;2023-05-10T11:29:10;14.70;75.20
51801;DHT22;37855;53.204;6.568;2023-05-10T11:31:48;14.70;75.00
51801;DHT22;37855;53.204;6.568;2023-05-10T11:34:31;14.80;74.60
51801;DHT22;37855;53.204;6.568;2023-05-10T11:37:00;14.80;74.50
51801;DHT22;37855;53.204;6.568;2023-05-10T11:39:27;14.70;74.40
51801;DHT22;37855;53.204;6.568;2023-05-10T11:41:53;14.70;74.40
51801;DHT22;37855;53.204;6.568;2023-05-10T11:44:19;14.70;74.70
51801;DHT22;37855;53.204;6.568;2023-05-10T11:46:45;14.70;74.70
51801;DHT22;37855;53.204;6.568;2023-05-10T11:49:11;14.70;74.10
51801;DHT22;37855;53.204;6.568;2023-05-10T11:51:38;14.70;74.40
51801;DHT22;37855;53.204;6.568;2023-05-10T11:54:09;14.70;74.60
51801;DHT22;37855;53.204;6.568;2023-05-10T11:56:37;14.70;74.70
51801;DHT22;37855;53.204;6.568;2023-05-10T11:59:07;14.80;74.40
51801;DHT22;37855;53.204;6.568;2023-05-10T12:01:33;14.70;74.30
51801;DHT22;37855;53.204;6.568;2023-05-10T12:04:00;14.70;74.40
51801;DHT22;37855;53.204;6.568;2023-05-10T12:06:28;14.70;74.40
51801;DHT22;37855;53.204;6.568;2023-05-10T12:08:55;14.60;74.40
51801;DHT22;37855;53.204;6.568;2023-05-10T12:11:28;14.60;74.00
51801;DHT22;37855;53.204;6.568;2023-05-10T12:13:54;14.50;74.40
51801;DHT22;37855;53.204;6.568;2023-05-10T12:16:25;14.50;74.70
51801;DHT22;37855;53.204;6.568;2023-05-10T12:18:59;14.40;74.70
51801;DHT22;37855;53.204;6.568;2023-05-10T12:21:25;14.40;75.00
51801;DHT22;37855;53.204;6.568;2023-05-10T12:23:53;14.40;75.20
51801;DHT22;37855;53.204;6.568;2023-05-10T12:26:26;14.40;75.50
51801;DHT22;37855;53.204;6.568;2023-05-10T12:28:54;14.30;75.40
51801;DHT22;37855;53.204;6.568;2023-05-10T12:31:19;14.30;75.40
51801;DHT22;37855;53.204;6.568;2023-05-10T12:33:45;14.30;75.50
51801;DHT22;37855;53.204;6.568;2023-05-10T12:36:14;14.30;75.30
51801;DHT22;37855;53.204;6.568;2023-05-10T12:38:42;14.30;75.40
51801;DHT22;37855;53.204;6.568;2023-05-10T12:41:10;14.30;75.40
51801;DHT22;37855;53.204;6.568;2023-05-10T12:43:36;14.30;75.50
51801;DHT22;37855;53.204;6.568;2023-05-10T12:46:08;14.40;75.60
51801;DHT22;37855;53.204;6.568;2023-05-10T12:48:35;14.50;75.50
51801;DHT22;37855;53.204;6.568;2023-05-10T12:51:02;14.50;75.50
51801;DHT22;37855;53.204;6.568;2023-05-10T12:53:28;14.60;75.30
51801;DHT22;37855;53.204;6.568;2023-05-10T12:55:54;14.70;75.10
51801;DHT22;37855;53.204;6.568;2023-05-10T12:58:21;14.80;75.00
51801;DHT22;37855;53.204;6.568;2023-05-10T13:00:47;14.90;74.70
51801;DHT22;37855;53.204;6.568;2023-05-10T13:03:12;14.90;74.20
51801;DHT22;37855;53.204;6.568;2023-05-10T13:05:39;15.00;74.00
51801;DHT22;37855;53.204;6.568;2023-05-10T13:08:05;15.00;74.10
51801;DHT22;37855;53.204;6.568;2023-05-10T13:10:31;15.00;74.20
51801;DHT22;37855;53.204;6.568;2023-05-10T13:12:58;15.10;74.20
51801;DHT22;37855;53.204;6.568;2023-05-10T13:15:24;15.10;73.90
51801;DHT22;37855;53.204;6.568;2023-05-10T13:17:49;15.10;73.80
51801;DHT22;37855;53.204;6.568;2023-05-10T13:20:15;15.10;73.50
51801;DHT22;37855;53.204;6.568;2023-05-10T13:22:42;15.00;73.30
51801;DHT22;37855;53.204;6.568;2023-05-10T13:25:08;14.90;73.40
51801;DHT22;37855;53.204;6.568;2023-05-10T13:27:34;14.80;73.60
51801;DHT22;37855;53.204;6.568;2023-05-10T13:30:00;14.70;73.60
51801;DHT22;37855;53.204;6.568;2023-05-10T13:32:27;14.70;73.50
51801;DHT22;37855;53.204;6.568;2023-05-10T13:34:53;14.70;73.50
51801;DHT22;37855;53.204;6.568;2023-05-10T13:37:19;14.70;73.70
51801;DHT22;37855;53.204;6.568;2023-05-10T13:39:44;14.70;73.60
51801;DHT22;37855;53.204;6.568;2023-05-10T13:42:10;14.70;73.70
51801;DHT22;37855;53.204;6.568;2023-05-10T13:44:36;14.70;73.60
51801;DHT22;37855;53.204;6.568;2023-05-10T13:47:01;14.70;73.80
51801;DHT22;37855;53.204;6.568;2023-05-10T13:49:27;14.70;73.70
51801;DHT22;37855;53.204;6.568;2023-05-10T13:51:53;14.70;73.50
51801;DHT22;37855;53.204;6.568;2023-05-10T13:54:18;14.70;73.40
51801;DHT22;37855;53.204;6.568;2023-05-10T13:56:45;14.70;73.40
51801;DHT22;37855;53.204;6.568;2023-05-10T13:59:12;14.70;73.30
51801;DHT22;37855;53.204;6.568;2023-05-10T14:01:39;14.70;73.30
51801;DHT22;37855;53.204;6.568;2023-05-10T14:04:05;14.70;73.50
51801;DHT22;37855;53.204;6.568;2023-05-10T14:06:32;14.70;73.50
51801;DHT22;37855;53.204;6.568;2023-05-10T14:08:57;14.80;73.60
51801;DHT22;37855;53.204;6.568;2023-05-10T14:11:23;14.80;73.40
51801;DHT22;37855;53.204;6.568;2023-05-10T14:13:49;14.90;73.20
51801;DHT22;37855;53.204;6.568;2023-05-10T14:16:14;14.90;73.00
51801;DHT22;37855;53.204;6.568;2023-05-10T14:18:40;14.90;73.00
51801;DHT22;37855;53.204;6.568;2023-05-10T14:21:06;15.00;72.70
51801;DHT22;37855;53.204;6.568;2023-05-10T14:23:32;15.00;72.70
51801;DHT22;37855;53.204;6.568;2023-05-10T14:25:57;15.00;72.70
51801;DHT22;37855;53.204;6.568;2023-05-10T14:28:23;15.00;72.70
51801;DHT22;37855;53.204;6.568;2023-05-10T14:30:50;15.10;72.30
51801;DHT22;37855;53.204;6.568;2023-05-10T14:33:16;15.10;72.40
51801;DHT22;37855;53.204;6.568;2023-05-10T14:35:42;15.20;72.30
51801;DHT22;37855;53.204;6.568;2023-05-10T14:38:09;15.20;72.30
51801;DHT22;37855;53.204;6.568;2023-05-10T14:40:36;15.30;72.20
51801;DHT22;37855;53.204;6.568;2023-05-10T14:43:01;15.30;72.00
51801;DHT22;37855;53.204;6.568;2023-05-10T14:45:27;15.40;71.70
51801;DHT22;37855;53.204;6.568;2023-05-10T14:47:52;15.40;71.80
51801;DHT22;37855;53.204;6.568;2023-05-10T14:50:18;15.50;71.80
51801;DHT22;37855;53.204;6.568;2023-05-10T14:52:44;15.60;72.00
51801;DHT22;37855;53.204;6.568;2023-05-10T14:55:10;15.70;72.10
51801;DHT22;37855;53.204;6.568;2023-05-10T14:57:36;15.80;71.60
51801;DHT22;37855;53.204;6.568;2023-05-10T15:00:02;15.90;70.90
51801;DHT22;37855;53.204;6.568;2023-05-10T15:02:30;15.90;70.60
51801;DHT22;37855;53.204;6.568;2023-05-10T15:04:55;15.90;70.10
51801;DHT22;37855;53.204;6.568;2023-05-10T15:07:23;15.90;70.20
51801;DHT22;37855;53.204;6.568;2023-05-10T15:09:49;15.90;70.10
51801;DHT22;37855;53.204;6.568;2023-05-10T15:12:16;15.90;70.20
51801;DHT22;37855;53.204;6.568;2023-05-10T15:14:42;15.80;70.40
51801;DHT22;37855;53.204;6.568;2023-05-10T15:17:09;15.80;70.40
51801;DHT22;37855;53.204;6.568;2023-05-10T15:19:35;15.80;70.50
51801;DHT22;37855;53.204;6.568;2023-05-10T15:22:02;15.80;70.60
51801;DHT22;37855;53.204;6.568;2023-05-10T15:24:28;15.70;70.60
51801;DHT22;37855;53.204;6.568;2023-05-10T15:26:54;15.70;70.60
51801;DHT22;37855;53.204;6.568;2023-05-10T15:29:20;15.70;70.70
51801;DHT22;37855;53.204;6.568;2023-05-10T15:31:52;15.70;70.60
51801;DHT22;37855;53.204;6.568;2023-05-10T15:34:18;15.60;70.80
51801;DHT22;37855;53.204;6.568;2023-05-10T15:36:44;15.60;70.60
51801;DHT22;37855;53.204;6.568;2023-05-10T15:39:11;15.50;70.70
51801;DHT22;37855;53.204;6.568;2023-05-10T15:41:36;15.50;71.10
51801;DHT22;37855;53.204;6.568;2023-05-10T15:44:02;15.50;71.40
51801;DHT22;37855;53.204;6.568;2023-05-10T15:46:28;15.50;71.50
51801;DHT22;37855;53.204;6.568;2023-05-10T15:48:54;15.40;71.80
51801;DHT22;37855;53.204;6.568;2023-05-10T15:51:23;15.40;71.80
51801;DHT22;37855;53.204;6.568;2023-05-10T15:53:49;15.40;71.90
51801;DHT22;37855;53.204;6.568;2023-05-10T15:56:14;15.30;72.30
51801;DHT22;37855;53.204;6.568;2023-05-10T15:58:43;15.20;72.30
51801;DHT22;37855;53.204;6.568;2023-05-10T16:01:09;15.10;72.60